Archival Weather

Yakutsk

Yakutsk, Russia (UEEE)

Report from: Sunday, February 5, 2023 1:30 PM JST
Current time: Wednesday, July 17, 2024 12:46 AM JST

Current weather – Weather history – Daily summaries
Weather forecast

Present weatherFog
Temperature-38.0°C (-36.4°F)
Dew point-42.0°C (-43.6°F)
Winds 1.9 kts (1 m/s, 2.2 mph) South (170°)
Visibility2624.7 ft. (800 m)
Altimeter30.09 in.Hg (1019 mB)
Precip. events QF 3:35 PM
Relative humidity66 %
Density altitude-7,295 ft. (-2,223 m)
Remarks No significant changes expected in the next two hours
Flight conditions Low Instrument Meteorological Conditions
Raw dataUEEE 050430Z 17001MPS 0800 0500SW R23L/0800N FG NSC M38/M42 Q1019 R23L/490150 NOSIG RMK QFE755
An error has occurred. This application may no longer respond until reloaded. Reload 🗙